sensor_id;sensor_type;location;lat;lon;timestamp;P1;durP1;ratioP1;P2;durP2;ratioP2
2009;SDS011;1008;47.404;8.502;2022-12-07T00:01:20;8.33;;;6.07;;
2009;SDS011;1008;47.404;8.502;2022-12-07T00:03:48;8.63;;;5.63;;
2009;SDS011;1008;47.404;8.502;2022-12-07T00:06:18;11.10;;;6.47;;
2009;SDS011;1008;47.404;8.502;2022-12-07T00:08:46;13.87;;;6.70;;
2009;SDS011;1008;47.404;8.502;2022-12-07T00:11:14;13.03;;;6.90;;
2009;SDS011;1008;47.404;8.502;2022-12-07T00:13:42;10.47;;;5.77;;
2009;SDS011;1008;47.404;8.502;2022-12-07T00:16:11;11.47;;;5.90;;
2009;SDS011;1008;47.404;8.502;2022-12-07T00:18:39;8.53;;;5.07;;
2009;SDS011;1008;47.404;8.502;2022-12-07T00:21:07;7.30;;;5.20;;
2009;SDS011;1008;47.404;8.502;2022-12-07T00:23:39;11.83;;;6.37;;
2009;SDS011;1008;47.404;8.502;2022-12-07T00:26:06;8.13;;;6.20;;
2009;SDS011;1008;47.404;8.502;2022-12-07T00:28:34;12.10;;;6.37;;
2009;SDS011;1008;47.404;8.502;2022-12-07T00:31:02;14.07;;;6.43;;
2009;SDS011;1008;47.404;8.502;2022-12-07T00:33:31;13.80;;;7.13;;
2009;SDS011;1008;47.404;8.502;2022-12-07T00:35:58;13.77;;;7.60;;
2009;SDS011;1008;47.404;8.502;2022-12-07T00:38:27;10.20;;;6.33;;
2009;SDS011;1008;47.404;8.502;2022-12-07T00:40:56;10.33;;;5.27;;
2009;SDS011;1008;47.404;8.502;2022-12-07T00:43:24;11.97;;;6.60;;
2009;SDS011;1008;47.404;8.502;2022-12-07T00:45:51;9.10;;;4.23;;
2009;SDS011;1008;47.404;8.502;2022-12-07T00:48:18;16.03;;;7.63;;
2009;SDS011;1008;47.404;8.502;2022-12-07T00:50:45;10.83;;;6.60;;
2009;SDS011;1008;47.404;8.502;2022-12-07T00:53:11;10.03;;;6.40;;
2009;SDS011;1008;47.404;8.502;2022-12-07T00:55:39;13.90;;;6.67;;
2009;SDS011;1008;47.404;8.502;2022-12-07T00:58:07;15.43;;;7.60;;
2009;SDS011;1008;47.404;8.502;2022-12-07T01:00:35;14.70;;;6.90;;
2009;SDS011;1008;47.404;8.502;2022-12-07T01:03:03;8.93;;;6.60;;
2009;SDS011;1008;47.404;8.502;2022-12-07T01:05:30;16.63;;;7.27;;
2009;SDS011;1008;47.404;8.502;2022-12-07T01:07:56;11.83;;;6.67;;
2009;SDS011;1008;47.404;8.502;2022-12-07T01:10:23;14.27;;;7.00;;
2009;SDS011;1008;47.404;8.502;2022-12-07T01:12:50;18.60;;;7.70;;
2009;SDS011;1008;47.404;8.502;2022-12-07T01:15:18;15.07;;;7.40;;
2009;SDS011;1008;47.404;8.502;2022-12-07T01:17:45;11.67;;;6.47;;
2009;SDS011;1008;47.404;8.502;2022-12-07T01:20:12;12.40;;;6.73;;
2009;SDS011;1008;47.404;8.502;2022-12-07T01:22:41;12.97;;;6.57;;
2009;SDS011;1008;47.404;8.502;2022-12-07T01:25:09;13.63;;;6.73;;
2009;SDS011;1008;47.404;8.502;2022-12-07T01:27:37;12.27;;;6.80;;
2009;SDS011;1008;47.404;8.502;2022-12-07T01:30:05;15.77;;;8.57;;
2009;SDS011;1008;47.404;8.502;2022-12-07T01:32:34;15.20;;;7.70;;
2009;SDS011;1008;47.404;8.502;2022-12-07T01:35:01;11.20;;;6.47;;
2009;SDS011;1008;47.404;8.502;2022-12-07T01:37:27;16.90;;;9.17;;
2009;SDS011;1008;47.404;8.502;2022-12-07T01:39:59;16.47;;;7.60;;
2009;SDS011;1008;47.404;8.502;2022-12-07T01:42:26;21.33;;;7.63;;
2009;SDS011;1008;47.404;8.502;2022-12-07T01:48:11;13.63;;;6.50;;
2009;SDS011;1008;47.404;8.502;2022-12-07T01:50:41;13.57;;;7.27;;
2009;SDS011;1008;47.404;8.502;2022-12-07T01:53:09;18.70;;;8.40;;
2009;SDS011;1008;47.404;8.502;2022-12-07T01:55:37;11.40;;;6.80;;
2009;SDS011;1008;47.404;8.502;2022-12-07T01:58:08;12.57;;;6.20;;
2009;SDS011;1008;47.404;8.502;2022-12-07T02:00:36;14.60;;;8.07;;
2009;SDS011;1008;47.404;8.502;2022-12-07T02:03:04;10.20;;;7.00;;
2009;SDS011;1008;47.404;8.502;2022-12-07T02:05:36;11.37;;;6.83;;
2009;SDS011;1008;47.404;8.502;2022-12-07T02:08:04;11.20;;;5.73;;
2009;SDS011;1008;47.404;8.502;2022-12-07T02:10:32;14.07;;;6.83;;
2009;SDS011;1008;47.404;8.502;2022-12-07T02:13:01;11.00;;;5.30;;
2009;SDS011;1008;47.404;8.502;2022-12-07T02:15:34;13.17;;;6.10;;
2009;SDS011;1008;47.404;8.502;2022-12-07T02:18:12;13.30;;;6.30;;
2009;SDS011;1008;47.404;8.502;2022-12-07T02:20:45;10.17;;;5.80;;
2009;SDS011;1008;47.404;8.502;2022-12-07T02:23:38;10.10;;;7.37;;
2009;SDS011;1008;47.404;8.502;2022-12-07T02:29:19;12.73;;;8.20;;
2009;SDS011;1008;47.404;8.502;2022-12-07T02:31:50;13.20;;;8.53;;
2009;SDS011;1008;47.404;8.502;2022-12-07T02:34:28;11.73;;;7.33;;
2009;SDS011;1008;47.404;8.502;2022-12-07T02:37:00;10.33;;;5.43;;
2009;SDS011;1008;47.404;8.502;2022-12-07T02:39:31;15.87;;;7.90;;
2009;SDS011;1008;47.404;8.502;2022-12-07T02:42:06;15.83;;;6.37;;
2009;SDS011;1008;47.404;8.502;2022-12-07T02:44:39;11.37;;;5.10;;
2009;SDS011;1008;47.404;8.502;2022-12-07T02:47:07;14.30;;;6.80;;
2009;SDS011;1008;47.404;8.502;2022-12-07T02:49:38;12.47;;;6.43;;
2009;SDS011;1008;47.404;8.502;2022-12-07T02:52:05;14.23;;;6.73;;
2009;SDS011;1008;47.404;8.502;2022-12-07T02:54:33;12.07;;;7.27;;
2009;SDS011;1008;47.404;8.502;2022-12-07T02:57:00;14.63;;;7.33;;
2009;SDS011;1008;47.404;8.502;2022-12-07T02:59:39;11.17;;;7.10;;
2009;SDS011;1008;47.404;8.502;2022-12-07T03:02:17;15.67;;;7.40;;
2009;SDS011;1008;47.404;8.502;2022-12-07T03:04:52;20.90;;;8.50;;
2009;SDS011;1008;47.404;8.502;2022-12-07T03:07:30;12.23;;;6.67;;
2009;SDS011;1008;47.404;8.502;2022-12-07T03:10:03;14.77;;;8.57;;
2009;SDS011;1008;47.404;8.502;2022-12-07T03:12:36;17.93;;;7.30;;
2009;SDS011;1008;47.404;8.502;2022-12-07T03:15:12;14.73;;;6.43;;
2009;SDS011;1008;47.404;8.502;2022-12-07T03:17:44;18.20;;;6.90;;
2009;SDS011;1008;47.404;8.502;2022-12-07T03:20:13;13.20;;;7.97;;
2009;SDS011;1008;47.404;8.502;2022-12-07T03:22:43;13.70;;;7.07;;
2009;SDS011;1008;47.404;8.502;2022-12-07T03:25:13;12.10;;;7.30;;
2009;SDS011;1008;47.404;8.502;2022-12-07T03:27:44;12.20;;;5.80;;
2009;SDS011;1008;47.404;8.502;2022-12-07T03:30:15;13.47;;;8.60;;
2009;SDS011;1008;47.404;8.502;2022-12-07T03:32:45;11.80;;;6.37;;
2009;SDS011;1008;47.404;8.502;2022-12-07T03:35:20;13.07;;;7.90;;
2009;SDS011;1008;47.404;8.502;2022-12-07T03:37:51;15.20;;;6.80;;
2009;SDS011;1008;47.404;8.502;2022-12-07T03:40:22;10.73;;;6.27;;
2009;SDS011;1008;47.404;8.502;2022-12-07T03:42:54;14.87;;;7.97;;
2009;SDS011;1008;47.404;8.502;2022-12-07T03:45:26;9.80;;;5.77;;
2009;SDS011;1008;47.404;8.502;2022-12-07T03:48:03;11.40;;;7.10;;
2009;SDS011;1008;47.404;8.502;2022-12-07T03:50:37;13.13;;;5.77;;
2009;SDS011;1008;47.404;8.502;2022-12-07T03:53:08;12.37;;;6.17;;
2009;SDS011;1008;47.404;8.502;2022-12-07T03:55:40;15.53;;;6.40;;
2009;SDS011;1008;47.404;8.502;2022-12-07T03:58:10;18.27;;;6.60;;
2009;SDS011;1008;47.404;8.502;2022-12-07T04:00:41;9.77;;;6.03;;
2009;SDS011;1008;47.404;8.502;2022-12-07T04:03:09;14.27;;;5.63;;
2009;SDS011;1008;47.404;8.502;2022-12-07T04:05:37;13.00;;;7.37;;
2009;SDS011;1008;47.404;8.502;2022-12-07T04:08:05;9.33;;;6.80;;
2009;SDS011;1008;47.404;8.502;2022-12-07T04:10:32;14.57;;;6.13;;
2009;SDS011;1008;47.404;8.502;2022-12-07T04:12:58;13.67;;;6.40;;
2009;SDS011;1008;47.404;8.502;2022-12-07T04:15:25;17.07;;;7.60;;
2009;SDS011;1008;47.404;8.502;2022-12-07T04:17:53;9.87;;;4.57;;
2009;SDS011;1008;47.404;8.502;2022-12-07T04:20:20;12.17;;;6.23;;
2009;SDS011;1008;47.404;8.502;2022-12-07T04:22:47;14.87;;;6.50;;
2009;SDS011;1008;47.404;8.502;2022-12-07T04:25:14;10.20;;;5.10;;
2009;SDS011;1008;47.404;8.502;2022-12-07T04:27:41;12.37;;;5.87;;
2009;SDS011;1008;47.404;8.502;2022-12-07T04:30:08;11.27;;;5.07;;
2009;SDS011;1008;47.404;8.502;2022-12-07T04:32:35;12.60;;;5.80;;
2009;SDS011;1008;47.404;8.502;2022-12-07T04:35:04;12.53;;;6.67;;
2009;SDS011;1008;47.404;8.502;2022-12-07T04:37:31;12.97;;;7.03;;
2009;SDS011;1008;47.404;8.502;2022-12-07T04:39:58;11.90;;;6.13;;
2009;SDS011;1008;47.404;8.502;2022-12-07T04:42:25;10.43;;;5.70;;
2009;SDS011;1008;47.404;8.502;2022-12-07T04:44:51;7.90;;;5.03;;
2009;SDS011;1008;47.404;8.502;2022-12-07T04:47:18;12.30;;;5.47;;
2009;SDS011;1008;47.404;8.502;2022-12-07T04:49:46;8.60;;;4.33;;
2009;SDS011;1008;47.404;8.502;2022-12-07T04:52:14;10.83;;;4.90;;
2009;SDS011;1008;47.404;8.502;2022-12-07T04:54:41;10.03;;;7.00;;
2009;SDS011;1008;47.404;8.502;2022-12-07T04:57:08;9.80;;;6.03;;
2009;SDS011;1008;47.404;8.502;2022-12-07T04:59:35;10.63;;;6.70;;
2009;SDS011;1008;47.404;8.502;2022-12-07T05:02:01;12.27;;;6.30;;
2009;SDS011;1008;47.404;8.502;2022-12-07T05:04:28;13.33;;;6.50;;
2009;SDS011;1008;47.404;8.502;2022-12-07T05:06:55;8.77;;;4.00;;
2009;SDS011;1008;47.404;8.502;2022-12-07T05:09:23;12.10;;;6.00;;
2009;SDS011;1008;47.404;8.502;2022-12-07T05:11:50;9.63;;;6.03;;
2009;SDS011;1008;47.404;8.502;2022-12-07T05:14:17;12.83;;;6.23;;
2009;SDS011;1008;47.404;8.502;2022-12-07T05:16:46;9.13;;;5.10;;
2009;SDS011;1008;47.404;8.502;2022-12-07T05:19:14;10.60;;;6.07;;
2009;SDS011;1008;47.404;8.502;2022-12-07T05:21:41;9.00;;;5.53;;
2009;SDS011;1008;47.404;8.502;2022-12-07T05:24:10;9.13;;;4.60;;
2009;SDS011;1008;47.404;8.502;2022-12-07T05:26:40;9.73;;;5.27;;
2009;SDS011;1008;47.404;8.502;2022-12-07T05:29:07;19.13;;;6.17;;
2009;SDS011;1008;47.404;8.502;2022-12-07T05:31:33;11.03;;;5.43;;
2009;SDS011;1008;47.404;8.502;2022-12-07T05:34:00;13.23;;;6.00;;
2009;SDS011;1008;47.404;8.502;2022-12-07T05:36:27;9.43;;;5.87;;
2009;SDS011;1008;47.404;8.502;2022-12-07T05:38:56;10.23;;;5.80;;
2009;SDS011;1008;47.404;8.502;2022-12-07T05:41:22;11.67;;;6.50;;
2009;SDS011;1008;47.404;8.502;2022-12-07T05:44:09;12.70;;;6.97;;
2009;SDS011;1008;47.404;8.502;2022-12-07T05:46:35;8.70;;;4.57;;
2009;SDS011;1008;47.404;8.502;2022-12-07T05:49:02;8.07;;;4.77;;
2009;SDS011;1008;47.404;8.502;2022-12-07T05:51:29;10.83;;;6.90;;
2009;SDS011;1008;47.404;8.502;2022-12-07T05:53:55;13.23;;;6.63;;
2009;SDS011;1008;47.404;8.502;2022-12-07T05:56:22;11.30;;;6.33;;
2009;SDS011;1008;47.404;8.502;2022-12-07T05:58:49;11.67;;;5.80;;
2009;SDS011;1008;47.404;8.502;2022-12-07T06:01:34;9.37;;;5.60;;
2009;SDS011;1008;47.404;8.502;2022-12-07T06:04:01;11.30;;;6.30;;
2009;SDS011;1008;47.404;8.502;2022-12-07T06:06:28;11.33;;;6.70;;
2009;SDS011;1008;47.404;8.502;2022-12-07T06:08:55;17.03;;;8.33;;
2009;SDS011;1008;47.404;8.502;2022-12-07T06:11:21;11.53;;;6.63;;
2009;SDS011;1008;47.404;8.502;2022-12-07T06:14:05;7.70;;;5.07;;
2009;SDS011;1008;47.404;8.502;2022-12-07T06:16:32;8.50;;;5.93;;
2009;SDS011;1008;47.404;8.502;2022-12-07T06:19:00;10.27;;;6.03;;
2009;SDS011;1008;47.404;8.502;2022-12-07T06:21:27;10.47;;;7.37;;
2009;SDS011;1008;47.404;8.502;2022-12-07T06:23:54;10.23;;;6.40;;
2009;SDS011;1008;47.404;8.502;2022-12-07T06:26:21;13.20;;;7.20;;
2009;SDS011;1008;47.404;8.502;2022-12-07T06:28:48;16.90;;;6.93;;
2009;SDS011;1008;47.404;8.502;2022-12-07T06:31:14;8.93;;;5.27;;
2009;SDS011;1008;47.404;8.502;2022-12-07T06:33:43;12.97;;;6.57;;
2009;SDS011;1008;47.404;8.502;2022-12-07T06:36:10;11.70;;;6.70;;
2009;SDS011;1008;47.404;8.502;2022-12-07T06:38:36;24.20;;;6.10;;
2009;SDS011;1008;47.404;8.502;2022-12-07T06:41:04;10.10;;;5.93;;
2009;SDS011;1008;47.404;8.502;2022-12-07T06:43:31;9.00;;;5.80;;
2009;SDS011;1008;47.404;8.502;2022-12-07T06:45:58;13.57;;;6.60;;
2009;SDS011;1008;47.404;8.502;2022-12-07T06:48:25;10.77;;;6.30;;
2009;SDS011;1008;47.404;8.502;2022-12-07T06:50:53;13.27;;;6.23;;
2009;SDS011;1008;47.404;8.502;2022-12-07T06:53:19;18.00;;;7.80;;
2009;SDS011;1008;47.404;8.502;2022-12-07T06:55:46;12.57;;;6.07;;
2009;SDS011;1008;47.404;8.502;2022-12-07T06:58:13;15.00;;;6.63;;
2009;SDS011;1008;47.404;8.502;2022-12-07T07:00:40;12.10;;;7.43;;
2009;SDS011;1008;47.404;8.502;2022-12-07T07:03:07;14.50;;;7.53;;
2009;SDS011;1008;47.404;8.502;2022-12-07T07:05:33;12.30;;;6.27;;
2009;SDS011;1008;47.404;8.502;2022-12-07T07:08:02;15.30;;;6.80;;
2009;SDS011;1008;47.404;8.502;2022-12-07T07:10:28;17.50;;;6.90;;
2009;SDS011;1008;47.404;8.502;2022-12-07T07:12:55;14.77;;;7.80;;
2009;SDS011;1008;47.404;8.502;2022-12-07T07:15:22;12.40;;;7.50;;
2009;SDS011;1008;47.404;8.502;2022-12-07T07:17:49;10.53;;;6.40;;
2009;SDS011;1008;47.404;8.502;2022-12-07T07:20:16;13.83;;;6.83;;
2009;SDS011;1008;47.404;8.502;2022-12-07T07:22:42;13.37;;;6.73;;
2009;SDS011;1008;47.404;8.502;2022-12-07T07:25:10;11.50;;;6.00;;
2009;SDS011;1008;47.404;8.502;2022-12-07T07:27:37;17.00;;;6.50;;
2009;SDS011;1008;47.404;8.502;2022-12-07T07:30:04;12.20;;;6.60;;
2009;SDS011;1008;47.404;8.502;2022-12-07T07:32:32;12.03;;;7.30;;
2009;SDS011;1008;47.404;8.502;2022-12-07T07:34:59;15.83;;;8.43;;
2009;SDS011;1008;47.404;8.502;2022-12-07T07:37:26;14.27;;;8.70;;
2009;SDS011;1008;47.404;8.502;2022-12-07T07:39:53;14.57;;;7.50;;
2009;SDS011;1008;47.404;8.502;2022-12-07T07:42:21;13.83;;;7.83;;
2009;SDS011;1008;47.404;8.502;2022-12-07T07:44:48;18.20;;;7.40;;
2009;SDS011;1008;47.404;8.502;2022-12-07T07:47:14;15.33;;;7.47;;
2009;SDS011;1008;47.404;8.502;2022-12-07T07:49:41;13.80;;;7.53;;
2009;SDS011;1008;47.404;8.502;2022-12-07T07:52:08;15.10;;;7.93;;
2009;SDS011;1008;47.404;8.502;2022-12-07T07:54:34;21.53;;;8.70;;
2009;SDS011;1008;47.404;8.502;2022-12-07T07:57:01;15.70;;;8.23;;
2009;SDS011;1008;47.404;8.502;2022-12-07T07:59:29;13.57;;;7.40;;
2009;SDS011;1008;47.404;8.502;2022-12-07T08:01:56;13.27;;;6.97;;
2009;SDS011;1008;47.404;8.502;2022-12-07T08:04:23;16.23;;;6.47;;
2009;SDS011;1008;47.404;8.502;2022-12-07T08:06:50;13.17;;;6.80;;
2009;SDS011;1008;47.404;8.502;2022-12-07T08:09:16;10.60;;;7.27;;
2009;SDS011;1008;47.404;8.502;2022-12-07T08:11:43;21.13;;;8.07;;
2009;SDS011;1008;47.404;8.502;2022-12-07T08:14:10;23.00;;;9.50;;
2009;SDS011;1008;47.404;8.502;2022-12-07T08:16:38;14.47;;;7.43;;
2009;SDS011;1008;47.404;8.502;2022-12-07T08:19:05;19.03;;;6.83;;
2009;SDS011;1008;47.404;8.502;2022-12-07T08:21:32;21.67;;;8.77;;
2009;SDS011;1008;47.404;8.502;2022-12-07T08:23:59;14.53;;;7.00;;
2009;SDS011;1008;47.404;8.502;2022-12-07T08:26:25;14.60;;;8.07;;
2009;SDS011;1008;47.404;8.502;2022-12-07T08:28:52;13.20;;;6.90;;
2009;SDS011;1008;47.404;8.502;2022-12-07T08:31:19;16.53;;;7.50;;
2009;SDS011;1008;47.404;8.502;2022-12-07T08:33:48;13.80;;;6.87;;
2009;SDS011;1008;47.404;8.502;2022-12-07T08:36:15;17.50;;;8.07;;
2009;SDS011;1008;47.404;8.502;2022-12-07T08:38:42;18.87;;;8.47;;
2009;SDS011;1008;47.404;8.502;2022-12-07T08:41:09;16.90;;;7.47;;
2009;SDS011;1008;47.404;8.502;2022-12-07T08:43:36;21.87;;;10.00;;
2009;SDS011;1008;47.404;8.502;2022-12-07T08:46:07;17.97;;;9.10;;
2009;SDS011;1008;47.404;8.502;2022-12-07T08:48:39;15.87;;;9.40;;
2009;SDS011;1008;47.404;8.502;2022-12-07T08:51:11;21.30;;;7.90;;
2009;SDS011;1008;47.404;8.502;2022-12-07T08:53:39;14.20;;;6.63;;
2009;SDS011;1008;47.404;8.502;2022-12-07T08:56:07;11.63;;;7.03;;
2009;SDS011;1008;47.404;8.502;2022-12-07T08:58:33;17.47;;;8.50;;
2009;SDS011;1008;47.404;8.502;2022-12-07T09:01:02;12.90;;;7.20;;
2009;SDS011;1008;47.404;8.502;2022-12-07T09:03:29;19.23;;;8.20;;
2009;SDS011;1008;47.404;8.502;2022-12-07T09:05:55;19.07;;;8.10;;
2009;SDS011;1008;47.404;8.502;2022-12-07T09:08:25;18.00;;;7.70;;
2009;SDS011;1008;47.404;8.502;2022-12-07T09:10:55;17.73;;;8.03;;
2009;SDS011;1008;47.404;8.502;2022-12-07T09:13:22;12.00;;;5.63;;
2009;SDS011;1008;47.404;8.502;2022-12-07T09:15:49;20.47;;;7.87;;
2009;SDS011;1008;47.404;8.502;2022-12-07T09:18:16;17.70;;;7.63;;
2009;SDS011;1008;47.404;8.502;2022-12-07T09:20:42;18.33;;;7.37;;
2009;SDS011;1008;47.404;8.502;2022-12-07T09:23:09;17.73;;;8.60;;
2009;SDS011;1008;47.404;8.502;2022-12-07T09:25:37;13.37;;;7.23;;
2009;SDS011;1008;47.404;8.502;2022-12-07T09:28:04;24.73;;;9.10;;
2009;SDS011;1008;47.404;8.502;2022-12-07T09:30:31;17.83;;;6.47;;
2009;SDS011;1008;47.404;8.502;2022-12-07T09:32:58;15.80;;;9.20;;
2009;SDS011;1008;47.404;8.502;2022-12-07T09:35:24;22.13;;;8.20;;
2009;SDS011;1008;47.404;8.502;2022-12-07T09:37:51;17.93;;;8.17;;
2009;SDS011;1008;47.404;8.502;2022-12-07T09:40:19;19.70;;;8.20;;
2009;SDS011;1008;47.404;8.502;2022-12-07T09:42:49;17.63;;;8.20;;
2009;SDS011;1008;47.404;8.502;2022-12-07T09:45:21;18.00;;;9.10;;
2009;SDS011;1008;47.404;8.502;2022-12-07T09:47:49;12.93;;;7.20;;
2009;SDS011;1008;47.404;8.502;2022-12-07T09:50:17;16.30;;;7.80;;
2009;SDS011;1008;47.404;8.502;2022-12-07T09:52:47;20.50;;;7.20;;
2009;SDS011;1008;47.404;8.502;2022-12-07T09:55:16;16.10;;;7.03;;
2009;SDS011;1008;47.404;8.502;2022-12-07T09:57:50;16.50;;;7.70;;
2009;SDS011;1008;47.404;8.502;2022-12-07T10:00:19;14.53;;;8.20;;
2009;SDS011;1008;47.404;8.502;2022-12-07T10:02:47;19.07;;;7.67;;
2009;SDS011;1008;47.404;8.502;2022-12-07T10:05:20;13.97;;;9.40;;
2009;SDS011;1008;47.404;8.502;2022-12-07T10:07:51;18.17;;;7.40;;
2009;SDS011;1008;47.404;8.502;2022-12-07T10:10:19;19.87;;;9.83;;
2009;SDS011;1008;47.404;8.502;2022-12-07T10:12:56;19.93;;;7.87;;
2009;SDS011;1008;47.404;8.502;2022-12-07T10:15:40;16.03;;;8.30;;
2009;SDS011;1008;47.404;8.502;2022-12-07T10:21:01;21.57;;;8.17;;
2009;SDS011;1008;47.404;8.502;2022-12-07T10:23:32;16.90;;;7.77;;
2009;SDS011;1008;47.404;8.502;2022-12-07T10:26:00;16.33;;;7.50;;
2009;SDS011;1008;47.404;8.502;2022-12-07T10:28:47;14.93;;;7.97;;
2009;SDS011;1008;47.404;8.502;2022-12-07T10:31:15;23.60;;;8.70;;
2009;SDS011;1008;47.404;8.502;2022-12-07T10:33:48;13.10;;;6.97;;
2009;SDS011;1008;47.404;8.502;2022-12-07T10:36:18;21.27;;;9.60;;
2009;SDS011;1008;47.404;8.502;2022-12-07T10:38:48;22.43;;;9.20;;
2009;SDS011;1008;47.404;8.502;2022-12-07T10:41:17;16.37;;;7.03;;
2009;SDS011;1008;47.404;8.502;2022-12-07T10:43:50;19.73;;;8.50;;
2009;SDS011;1008;47.404;8.502;2022-12-07T10:49:31;12.57;;;6.77;;
2009;SDS011;1008;47.404;8.502;2022-12-07T10:52:21;14.70;;;8.10;;
2009;SDS011;1008;47.404;8.502;2022-12-07T10:55:05;16.27;;;7.93;;
2009;SDS011;1008;47.404;8.502;2022-12-07T10:57:44;17.10;;;7.80;;
2009;SDS011;1008;47.404;8.502;2022-12-07T11:00:19;18.67;;;7.53;;
2009;SDS011;1008;47.404;8.502;2022-12-07T11:03:01;20.40;;;7.27;;
2009;SDS011;1008;47.404;8.502;2022-12-07T11:05:42;10.67;;;6.53;;
2009;SDS011;1008;47.404;8.502;2022-12-07T11:08:17;12.23;;;6.27;;
2009;SDS011;1008;47.404;8.502;2022-12-07T11:10:51;16.57;;;6.63;;
2009;SDS011;1008;47.404;8.502;2022-12-07T11:13:29;13.07;;;7.10;;
2009;SDS011;1008;47.404;8.502;2022-12-07T11:16:10;8.87;;;5.30;;
2009;SDS011;1008;47.404;8.502;2022-12-07T11:18:59;16.60;;;6.30;;
2009;SDS011;1008;47.404;8.502;2022-12-07T11:21:40;6.87;;;4.53;;
2009;SDS011;1008;47.404;8.502;2022-12-07T11:24:13;11.70;;;4.87;;
2009;SDS011;1008;47.404;8.502;2022-12-07T11:26:47;10.63;;;6.20;;
2009;SDS011;1008;47.404;8.502;2022-12-07T11:29:28;17.10;;;8.10;;
2009;SDS011;1008;47.404;8.502;2022-12-07T11:32:17;13.37;;;7.23;;
2009;SDS011;1008;47.404;8.502;2022-12-07T11:34:55;10.47;;;5.43;;
2009;SDS011;1008;47.404;8.502;2022-12-07T11:37:32;10.20;;;4.43;;
2009;SDS011;1008;47.404;8.502;2022-12-07T11:40:03;13.70;;;5.53;;
2009;SDS011;1008;47.404;8.502;2022-12-07T11:42:33;9.73;;;4.70;;
2009;SDS011;1008;47.404;8.502;2022-12-07T11:45:10;7.67;;;4.60;;
2009;SDS011;1008;47.404;8.502;2022-12-07T11:47:43;15.50;;;6.70;;
2009;SDS011;1008;47.404;8.502;2022-12-07T11:50:16;8.10;;;5.30;;
2009;SDS011;1008;47.404;8.502;2022-12-07T11:52:51;11.03;;;5.80;;
2009;SDS011;1008;47.404;8.502;2022-12-07T11:55:24;10.47;;;7.30;;
2009;SDS011;1008;47.404;8.502;2022-12-07T11:57:57;9.03;;;4.73;;
2009;SDS011;1008;47.404;8.502;2022-12-07T12:00:29;10.40;;;5.67;;
2009;SDS011;1008;47.404;8.502;2022-12-07T12:02:58;13.70;;;6.50;;
2009;SDS011;1008;47.404;8.502;2022-12-07T12:05:29;16.73;;;5.30;;
2009;SDS011;1008;47.404;8.502;2022-12-07T12:07:59;8.63;;;4.80;;
2009;SDS011;1008;47.404;8.502;2022-12-07T12:10:38;13.83;;;6.90;;
2009;SDS011;1008;47.404;8.502;2022-12-07T12:16:15;10.10;;;5.20;;
2009;SDS011;1008;47.404;8.502;2022-12-07T12:19:06;17.40;;;5.70;;
2009;SDS011;1008;47.404;8.502;2022-12-07T12:21:45;8.40;;;4.60;;
2009;SDS011;1008;47.404;8.502;2022-12-07T12:24:15;11.40;;;5.63;;
2009;SDS011;1008;47.404;8.502;2022-12-07T12:26:48;13.80;;;6.00;;
2009;SDS011;1008;47.404;8.502;2022-12-07T12:29:19;8.63;;;4.87;;
2009;SDS011;1008;47.404;8.502;2022-12-07T12:32:04;9.60;;;4.20;;
2009;SDS011;1008;47.404;8.502;2022-12-07T12:34:38;6.70;;;4.00;;
2009;SDS011;1008;47.404;8.502;2022-12-07T12:43:26;13.70;;;6.57;;
2009;SDS011;1008;47.404;8.502;2022-12-07T12:49:32;8.20;;;4.73;;
2009;SDS011;1008;47.404;8.502;2022-12-07T12:55:16;6.90;;;4.00;;
2009;SDS011;1008;47.404;8.502;2022-12-07T12:58:21;7.73;;;4.67;;
2009;SDS011;1008;47.404;8.502;2022-12-07T13:04:13;4.10;;;3.70;;
2009;SDS011;1008;47.404;8.502;2022-12-07T13:06:48;9.67;;;4.47;;
2009;SDS011;1008;47.404;8.502;2022-12-07T13:09:17;10.97;;;5.60;;
2009;SDS011;1008;47.404;8.502;2022-12-07T13:11:48;9.00;;;5.07;;
2009;SDS011;1008;47.404;8.502;2022-12-07T13:17:07;8.20;;;5.40;;
2009;SDS011;1008;47.404;8.502;2022-12-07T13:25:19;7.67;;;4.07;;
2009;SDS011;1008;47.404;8.502;2022-12-07T13:27:57;7.73;;;4.57;;
2009;SDS011;1008;47.404;8.502;2022-12-07T13:30:27;6.87;;;4.30;;
2009;SDS011;1008;47.404;8.502;2022-12-07T13:32:56;12.53;;;4.93;;
2009;SDS011;1008;47.404;8.502;2022-12-07T13:35:31;4.83;;;3.30;;
2009;SDS011;1008;47.404;8.502;2022-12-07T13:38:02;8.10;;;4.73;;
2009;SDS011;1008;47.404;8.502;2022-12-07T13:40:32;5.73;;;3.77;;
2009;SDS011;1008;47.404;8.502;2022-12-07T13:42:59;7.97;;;4.70;;
2009;SDS011;1008;47.404;8.502;2022-12-07T13:45:27;7.97;;;4.60;;
2009;SDS011;1008;47.404;8.502;2022-12-07T13:48:10;8.70;;;4.80;;
2009;SDS011;1008;47.404;8.502;2022-12-07T13:50:42;7.13;;;3.63;;
2009;SDS011;1008;47.404;8.502;2022-12-07T13:53:12;11.80;;;4.03;;
2009;SDS011;1008;47.404;8.502;2022-12-07T13:55:44;5.80;;;4.00;;
2009;SDS011;1008;47.404;8.502;2022-12-07T13:58:12;9.87;;;4.20;;
2009;SDS011;1008;47.404;8.502;2022-12-07T14:00:39;12.47;;;5.10;;
2009;SDS011;1008;47.404;8.502;2022-12-07T14:03:20;10.70;;;4.77;;
2009;SDS011;1008;47.404;8.502;2022-12-07T14:06:03;10.47;;;5.40;;
2009;SDS011;1008;47.404;8.502;2022-12-07T14:08:34;16.77;;;5.20;;
2009;SDS011;1008;47.404;8.502;2022-12-07T14:11:00;7.53;;;3.83;;
2009;SDS011;1008;47.404;8.502;2022-12-07T14:13:29;6.30;;;4.20;;
2009;SDS011;1008;47.404;8.502;2022-12-07T14:15:58;7.40;;;3.93;;
2009;SDS011;1008;47.404;8.502;2022-12-07T14:18:26;8.00;;;3.80;;
2009;SDS011;1008;47.404;8.502;2022-12-07T14:21:02;7.33;;;4.50;;
2009;SDS011;1008;47.404;8.502;2022-12-07T14:23:30;4.47;;;3.23;;
2009;SDS011;1008;47.404;8.502;2022-12-07T14:26:06;8.63;;;4.03;;
2009;SDS011;1008;47.404;8.502;2022-12-07T14:28:35;11.03;;;3.53;;
2009;SDS011;1008;47.404;8.502;2022-12-07T14:31:03;12.03;;;4.80;;
2009;SDS011;1008;47.404;8.502;2022-12-07T14:33:37;11.00;;;5.10;;
2009;SDS011;1008;47.404;8.502;2022-12-07T14:36:04;6.73;;;3.43;;
2009;SDS011;1008;47.404;8.502;2022-12-07T14:38:31;10.73;;;5.00;;
2009;SDS011;1008;47.404;8.502;2022-12-07T14:40:58;7.73;;;4.23;;
2009;SDS011;1008;47.404;8.502;2022-12-07T14:43:46;9.90;;;4.60;;
2009;SDS011;1008;47.404;8.502;2022-12-07T14:46:13;6.73;;;4.70;;
2009;SDS011;1008;47.404;8.502;2022-12-07T14:48:40;8.03;;;4.40;;
2009;SDS011;1008;47.404;8.502;2022-12-07T14:51:07;6.73;;;4.00;;
2009;SDS011;1008;47.404;8.502;2022-12-07T14:53:38;12.13;;;5.00;;
2009;SDS011;1008;47.404;8.502;2022-12-07T14:56:10;9.10;;;3.80;;
2009;SDS011;1008;47.404;8.502;2022-12-07T14:58:37;7.80;;;3.50;;
2009;SDS011;1008;47.404;8.502;2022-12-07T15:01:08;7.83;;;3.87;;
2009;SDS011;1008;47.404;8.502;2022-12-07T15:03:34;7.60;;;4.83;;
2009;SDS011;1008;47.404;8.502;2022-12-07T15:06:03;7.07;;;4.70;;
2009;SDS011;1008;47.404;8.502;2022-12-07T15:08:31;6.87;;;3.87;;
2009;SDS011;1008;47.404;8.502;2022-12-07T15:10:58;8.13;;;4.83;;
2009;SDS011;1008;47.404;8.502;2022-12-07T15:13:25;6.17;;;4.30;;
2009;SDS011;1008;47.404;8.502;2022-12-07T15:16:11;10.20;;;4.13;;
2009;SDS011;1008;47.404;8.502;2022-12-07T15:18:42;16.53;;;4.30;;
2009;SDS011;1008;47.404;8.502;2022-12-07T15:21:10;12.60;;;4.87;;
2009;SDS011;1008;47.404;8.502;2022-12-07T15:23:39;6.50;;;5.60;;
2009;SDS011;1008;47.404;8.502;2022-12-07T15:26:06;5.87;;;3.90;;
2009;SDS011;1008;47.404;8.502;2022-12-07T15:28:35;7.40;;;5.20;;
2009;SDS011;1008;47.404;8.502;2022-12-07T15:31:02;8.10;;;4.60;;
2009;SDS011;1008;47.404;8.502;2022-12-07T15:33:30;8.67;;;3.60;;
2009;SDS011;1008;47.404;8.502;2022-12-07T15:35:58;8.37;;;4.00;;
2009;SDS011;1008;47.404;8.502;2022-12-07T15:38:25;5.80;;;4.17;;
2009;SDS011;1008;47.404;8.502;2022-12-07T15:40:53;9.03;;;3.90;;
2009;SDS011;1008;47.404;8.502;2022-12-07T15:43:20;5.50;;;3.90;;
2009;SDS011;1008;47.404;8.502;2022-12-07T15:46:04;4.47;;;3.83;;
2009;SDS011;1008;47.404;8.502;2022-12-07T15:48:32;7.03;;;4.30;;
2009;SDS011;1008;47.404;8.502;2022-12-07T15:51:02;4.17;;;3.37;;
2009;SDS011;1008;47.404;8.502;2022-12-07T15:53:29;8.03;;;4.67;;
2009;SDS011;1008;47.404;8.502;2022-12-07T15:55:56;7.80;;;3.50;;
2009;SDS011;1008;47.404;8.502;2022-12-07T15:58:23;7.23;;;4.53;;
2009;SDS011;1008;47.404;8.502;2022-12-07T16:00:49;5.27;;;4.20;;
2009;SDS011;1008;47.404;8.502;2022-12-07T16:03:16;9.57;;;4.37;;